createdAt,value
2023-12-19T00:01:03.423Z,31.40
2023-12-19T00:03:30.299Z,33.10
2023-12-19T00:05:57.259Z,30.70
2023-12-19T00:08:24.048Z,29.10
2023-12-19T00:10:51.032Z,39.20
2023-12-19T00:13:17.852Z,31.60
2023-12-19T00:15:44.823Z,34.20
2023-12-19T00:18:12.116Z,34.90
2023-12-19T00:20:38.821Z,31.70
2023-12-19T00:23:06.380Z,35.80
2023-12-19T00:25:33.222Z,32.20
2023-12-19T00:28:03.026Z,29.30
2023-12-19T00:32:57.000Z,29.20
2023-12-19T00:35:24.233Z,27.50
2023-12-19T00:37:51.038Z,31.90
2023-12-19T00:40:18.294Z,26.20
2023-12-19T00:42:45.332Z,28.80
2023-12-19T00:45:12.617Z,24.90
2023-12-19T00:47:40.775Z,29.50
2023-12-19T00:50:10.589Z,25.20
2023-12-19T00:55:05.061Z,22.80
2023-12-19T00:57:32.937Z,18.40
2023-12-19T00:59:59.736Z,18.60
2023-12-19T01:02:28.818Z,19.20
2023-12-19T01:04:58.976Z,16.90
2023-12-19T01:07:25.817Z,22.40
2023-12-19T01:09:53.103Z,17.50
2023-12-19T01:12:20.204Z,13.60
2023-12-19T01:14:47.022Z,9.40
2023-12-19T01:17:13.788Z,12.70
2023-12-19T01:19:40.602Z,13.60
2023-12-19T01:22:07.453Z,9.70
2023-12-19T01:24:35.950Z,9.90
2023-12-19T01:27:03.294Z,11.40
2023-12-19T01:29:30.567Z,11.70
2023-12-19T01:31:57.418Z,10.40
2023-12-19T01:34:24.382Z,9.80
2023-12-19T01:36:57.067Z,12.40
2023-12-19T01:39:25.775Z,11.40
2023-12-19T01:41:52.995Z,11.40
2023-12-19T01:44:20.639Z,10.40
2023-12-19T01:46:48.228Z,9.30
2023-12-19T01:49:15.948Z,13.90
2023-12-19T01:51:43.489Z,16.20
2023-12-19T01:54:12.417Z,14.50
2023-12-19T01:56:40.163Z,17.20
2023-12-19T01:59:08.074Z,10.60
2023-12-19T02:01:38.981Z,12.80
2023-12-19T02:04:06.446Z,13.20
2023-12-19T02:06:36.304Z,14.50
2023-12-19T02:09:03.901Z,11.20
2023-12-19T02:11:30.971Z,15.30
2023-12-19T02:13:59.924Z,13.40
2023-12-19T02:16:30.740Z,10.30
2023-12-19T02:19:05.422Z,10.50
2023-12-19T02:21:32.880Z,12.00
2023-12-19T02:24:00.349Z,8.90
2023-12-19T02:26:28.416Z,7.80
2023-12-19T02:28:55.635Z,7.30
2023-12-19T02:31:22.601Z,9.50
2023-12-19T02:33:49.839Z,7.10
2023-12-19T02:36:18.247Z,8.40
2023-12-19T02:38:45.518Z,9.10
2023-12-19T02:41:12.378Z,8.30
2023-12-19T02:43:53.312Z,7.60
2023-12-19T02:46:22.726Z,9.10
2023-12-19T02:48:49.825Z,8.30
2023-12-19T02:51:20.166Z,9.00
2023-12-19T02:53:47.690Z,9.80
2023-12-19T02:56:14.539Z,9.80
2023-12-19T02:58:42.390Z,8.40
2023-12-19T03:01:10.031Z,8.40
2023-12-19T03:03:37.346Z,8.30
2023-12-19T03:06:04.647Z,8.30
2023-12-19T03:08:31.540Z,8.60
2023-12-19T03:10:59.963Z,13.90
2023-12-19T03:13:27.065Z,11.40
2023-12-19T03:15:53.854Z,8.00
2023-12-19T03:18:26.966Z,10.10
2023-12-19T03:20:54.155Z,9.00
2023-12-19T03:23:22.296Z,7.80
2023-12-19T03:25:49.641Z,6.40
2023-12-19T03:28:16.933Z,7.40
2023-12-19T03:30:44.026Z,9.00
2023-12-19T03:33:11.143Z,7.40
2023-12-19T03:35:38.213Z,8.80
2023-12-19T03:38:04.979Z,10.70
2023-12-19T03:40:31.890Z,7.90
2023-12-19T03:42:58.667Z,11.50
2023-12-19T03:45:25.578Z,11.40
2023-12-19T03:47:52.975Z,10.10
2023-12-19T03:50:19.792Z,12.70
2023-12-19T03:52:46.780Z,12.40
2023-12-19T03:55:33.682Z,7.50
2023-12-19T03:58:00.849Z,14.00
2023-12-19T04:00:27.849Z,13.90
2023-12-19T04:02:54.715Z,14.50
2023-12-19T04:05:21.745Z,17.80
2023-12-19T04:07:48.560Z,16.70
2023-12-19T04:10:15.637Z,16.00
2023-12-19T04:12:42.517Z,21.30
2023-12-19T04:15:10.267Z,21.80
2023-12-19T04:17:37.280Z,21.40
2023-12-19T04:20:04.828Z,21.50
2023-12-19T04:22:33.048Z,20.10
2023-12-19T04:25:00.365Z,20.90
2023-12-19T04:27:27.427Z,25.30
2023-12-19T04:29:57.088Z,24.50
2023-12-19T04:32:25.211Z,29.50
2023-12-19T04:34:52.055Z,24.30
2023-12-19T04:37:18.809Z,23.60
2023-12-19T04:39:46.151Z,24.80
2023-12-19T04:42:18.701Z,23.40
2023-12-19T04:44:47.870Z,25.00
2023-12-19T04:47:14.742Z,23.70
2023-12-19T04:49:41.982Z,20.70
2023-12-19T04:52:09.352Z,23.30
2023-12-19T04:54:36.202Z,20.70
2023-12-19T04:57:03.153Z,21.30
2023-12-19T04:59:30.184Z,22.40
2023-12-19T05:01:57.195Z,25.20
2023-12-19T05:04:23.987Z,22.10
2023-12-19T05:06:51.064Z,18.60
2023-12-19T05:09:20.088Z,21.70
2023-12-19T05:11:46.847Z,22.40
2023-12-19T05:14:13.609Z,20.70
2023-12-19T05:16:40.388Z,24.30
2023-12-19T05:19:07.267Z,21.50
2023-12-19T05:21:40.740Z,21.00
2023-12-19T05:24:10.401Z,19.50
2023-12-19T05:26:37.450Z,18.90
2023-12-19T05:29:05.599Z,20.40
2023-12-19T05:31:32.572Z,21.10
2023-12-19T05:33:59.504Z,19.10
2023-12-19T05:36:26.525Z,17.50
2023-12-19T05:38:53.272Z,19.30
2023-12-19T05:41:20.208Z,14.50
2023-12-19T05:43:47.260Z,10.50
2023-12-19T05:46:15.451Z,19.30
2023-12-19T05:48:42.375Z,21.90
2023-12-19T05:51:09.643Z,20.60
2023-12-19T05:53:38.769Z,20.40
2023-12-19T05:56:06.783Z,18.80
2023-12-19T05:58:34.356Z,16.80
2023-12-19T06:01:02.158Z,20.40
2023-12-19T06:03:29.122Z,14.70
2023-12-19T06:05:56.494Z,15.40
2023-12-19T06:08:24.182Z,18.00
2023-12-19T06:11:20.872Z,15.00
2023-12-19T06:13:47.860Z,13.80
2023-12-19T06:16:37.105Z,15.80
2023-12-19T06:19:05.874Z,11.90
2023-12-19T06:21:34.269Z,11.60
2023-12-19T06:24:01.141Z,15.90
2023-12-19T06:26:27.933Z,19.10
2023-12-19T06:28:54.689Z,16.80
2023-12-19T06:31:21.605Z,15.50
2023-12-19T06:33:48.620Z,14.10
2023-12-19T06:36:30.425Z,15.00
2023-12-19T06:38:57.160Z,11.90
2023-12-19T06:41:23.989Z,15.30
2023-12-19T06:43:50.974Z,15.20
2023-12-19T06:46:18.966Z,14.30
2023-12-19T06:48:46.375Z,13.50
2023-12-19T06:51:28.274Z,12.30
2023-12-19T06:53:58.994Z,12.90
2023-12-19T06:56:30.373Z,14.40
2023-12-19T06:58:57.416Z,10.50
2023-12-19T07:01:26.700Z,12.10
2023-12-19T07:03:53.952Z,8.80
2023-12-19T07:06:20.812Z,13.00
2023-12-19T07:08:49.186Z,12.30
2023-12-19T07:11:18.302Z,13.40
2023-12-19T07:13:45.626Z,15.30
2023-12-19T07:16:17.944Z,15.70
2023-12-19T07:18:48.321Z,12.20
2023-12-19T07:21:22.960Z,9.60
2023-12-19T07:23:54.684Z,7.80
2023-12-19T07:26:21.913Z,5.50
2023-12-19T07:28:48.755Z,6.50
2023-12-19T07:31:26.706Z,5.70
2023-12-19T07:33:59.406Z,6.20
2023-12-19T07:36:27.513Z,8.40
2023-12-19T07:38:55.349Z,8.60
2023-12-19T07:41:24.443Z,7.00
2023-12-19T07:43:51.515Z,6.90
2023-12-19T07:46:18.610Z,6.60
2023-12-19T07:48:45.916Z,8.70
2023-12-19T07:51:27.817Z,6.00
2023-12-19T07:53:58.873Z,5.20
2023-12-19T07:56:25.885Z,6.40
2023-12-19T07:58:53.680Z,6.20
2023-12-19T08:01:21.448Z,7.60
2023-12-19T08:03:48.961Z,7.40
2023-12-19T08:06:16.674Z,6.90
2023-12-19T08:08:43.844Z,7.40
2023-12-19T08:11:10.986Z,7.40
2023-12-19T08:13:37.742Z,6.80
2023-12-19T08:16:06.981Z,7.40
2023-12-19T08:18:34.610Z,6.60
2023-12-19T08:21:04.886Z,5.60
2023-12-19T08:23:32.242Z,4.00
2023-12-19T08:25:59.260Z,3.70
2023-12-19T08:28:26.213Z,3.60
2023-12-19T08:30:53.291Z,5.10
2023-12-19T08:33:21.779Z,5.20
2023-12-19T08:38:17.015Z,3.00
2023-12-19T08:40:43.987Z,6.60
2023-12-19T08:43:11.036Z,4.80
2023-12-19T08:45:38.444Z,5.20
2023-12-19T08:48:06.521Z,5.20
2023-12-19T08:50:33.714Z,8.00
2023-12-19T08:53:01.373Z,7.00
2023-12-19T08:55:28.516Z,14.60
2023-12-19T08:57:55.642Z,11.00
2023-12-19T09:00:23.948Z,11.90
2023-12-19T09:02:50.939Z,9.50
2023-12-19T09:05:19.653Z,8.20
2023-12-19T09:07:51.308Z,6.90
2023-12-19T09:10:19.128Z,7.70
2023-12-19T09:12:46.503Z,9.20
2023-12-19T09:15:14.047Z,8.10
2023-12-19T09:17:41.196Z,6.60
2023-12-19T09:20:09.815Z,8.90
2023-12-19T09:22:37.373Z,8.00
2023-12-19T09:25:04.887Z,7.40
2023-12-19T09:27:33.234Z,8.50
2023-12-19T09:30:00.238Z,7.50
2023-12-19T09:32:27.277Z,9.40
2023-12-19T09:34:55.211Z,6.70
2023-12-19T09:37:25.133Z,7.50
2023-12-19T09:39:54.129Z,8.30
2023-12-19T09:42:22.219Z,7.20
2023-12-19T09:44:49.607Z,6.20
2023-12-19T09:47:25.513Z,6.60
2023-12-19T09:50:01.636Z,7.30
2023-12-19T09:52:29.568Z,6.30
2023-12-19T09:54:56.631Z,7.30
2023-12-19T09:57:25.835Z,5.20
2023-12-19T09:59:57.176Z,6.00
2023-12-19T10:02:26.852Z,6.00
2023-12-19T10:04:54.699Z,5.80
2023-12-19T10:07:22.105Z,4.70
2023-12-19T10:09:59.008Z,5.60
2023-12-19T10:12:34.418Z,5.40
2023-12-19T10:15:15.791Z,6.60
2023-12-19T10:18:13.288Z,5.00
2023-12-19T10:20:42.380Z,5.10
2023-12-19T10:23:10.708Z,9.50
2023-12-19T10:25:45.554Z,9.50
2023-12-19T10:28:15.961Z,7.90
2023-12-19T10:30:47.274Z,9.70
2023-12-19T10:33:17.779Z,7.80
2023-12-19T10:35:46.734Z,7.00
2023-12-19T10:38:14.286Z,6.90
2023-12-19T10:40:41.452Z,6.90
2023-12-19T10:43:08.578Z,5.00
2023-12-19T10:45:36.348Z,8.10
2023-12-19T10:48:03.232Z,6.20
2023-12-19T10:50:31.378Z,6.70
2023-12-19T10:53:06.834Z,4.60
2023-12-19T10:55:47.770Z,6.40
2023-12-19T10:58:21.730Z,6.50
2023-12-19T11:00:52.394Z,5.30
2023-12-19T11:03:24.710Z,4.70
2023-12-19T11:05:55.603Z,5.40
2023-12-19T11:08:25.853Z,4.90
2023-12-19T11:11:00.451Z,4.40
2023-12-19T11:13:28.910Z,6.40
2023-12-19T11:16:18.685Z,5.90
2023-12-19T11:21:43.436Z,4.10
2023-12-19T11:24:19.637Z,4.80
2023-12-19T11:27:19.658Z,4.50
2023-12-19T11:29:55.304Z,6.30
2023-12-19T11:32:28.098Z,4.40
2023-12-19T11:34:56.933Z,5.50
2023-12-19T11:37:26.318Z,3.50
2023-12-19T11:39:54.756Z,5.80
2023-12-19T11:42:41.964Z,4.90
2023-12-19T11:45:18.070Z,5.70
2023-12-19T11:47:47.252Z,5.10
2023-12-19T11:50:40.920Z,5.70
2023-12-19T11:53:08.703Z,4.50
2023-12-19T11:55:36.176Z,5.30
2023-12-19T11:58:14.100Z,5.20
2023-12-19T12:00:44.786Z,3.70
2023-12-19T12:03:13.802Z,5.10
2023-12-19T12:05:41.532Z,4.50
2023-12-19T12:08:14.623Z,5.50
2023-12-19T12:10:42.121Z,3.80
2023-12-19T12:13:09.486Z,5.00
2023-12-19T12:15:36.505Z,6.80
2023-12-19T12:18:07.965Z,5.10
2023-12-19T12:20:36.691Z,4.40
2023-12-19T12:23:04.952Z,5.30
2023-12-19T12:25:35.058Z,5.10
2023-12-19T12:28:09.068Z,6.00
2023-12-19T12:30:37.408Z,5.20
2023-12-19T12:33:09.305Z,4.70
2023-12-19T12:35:38.694Z,7.10
2023-12-19T12:38:20.796Z,7.20
2023-12-19T12:41:03.251Z,5.70
2023-12-19T12:43:35.792Z,5.10
2023-12-19T12:46:14.334Z,5.50
2023-12-19T12:48:57.519Z,5.00
2023-12-19T12:51:25.002Z,4.40
2023-12-19T12:54:04.261Z,3.70
2023-12-19T12:56:36.524Z,7.60
2023-12-19T12:59:08.084Z,5.10
2023-12-19T13:01:36.534Z,8.10
2023-12-19T13:04:08.318Z,6.50
2023-12-19T13:06:44.021Z,4.80
2023-12-19T13:09:16.498Z,5.70
2023-12-19T13:11:55.317Z,5.30
2023-12-19T13:14:23.781Z,5.40
2023-12-19T13:16:50.891Z,6.20
2023-12-19T13:19:19.980Z,3.80
2023-12-19T13:21:47.836Z,7.50
2023-12-19T13:24:16.229Z,8.20
2023-12-19T13:26:43.187Z,6.50
2023-12-19T13:29:10.591Z,5.30
2023-12-19T13:31:39.238Z,6.20
2023-12-19T13:34:06.628Z,7.00
2023-12-19T13:36:33.804Z,5.50
2023-12-19T13:39:00.832Z,7.10
2023-12-19T13:41:28.881Z,7.40
2023-12-19T13:43:56.856Z,5.70
2023-12-19T13:46:25.380Z,4.50
2023-12-19T13:48:53.767Z,7.10
2023-12-19T13:51:22.037Z,6.70
2023-12-19T13:53:49.061Z,6.30
2023-12-19T13:56:16.658Z,11.50
2023-12-19T13:58:43.656Z,7.00
2023-12-19T14:01:10.752Z,7.10
2023-12-19T14:03:40.358Z,3.70
2023-12-19T14:08:43.816Z,3.40
2023-12-19T14:11:10.784Z,5.60
2023-12-19T14:13:39.165Z,17.60
2023-12-19T14:16:06.676Z,5.30
2023-12-19T14:18:33.929Z,4.70
2023-12-19T14:21:01.866Z,4.10
2023-12-19T14:23:29.083Z,5.00
2023-12-19T14:25:56.008Z,3.30
2023-12-19T14:28:23.079Z,4.60
2023-12-19T14:30:50.410Z,4.00
2023-12-19T14:33:17.471Z,3.10
2023-12-19T14:35:44.602Z,5.20
2023-12-19T14:38:11.772Z,4.30
2023-12-19T14:40:38.760Z,5.60
2023-12-19T14:43:07.236Z,4.50
2023-12-19T14:45:34.296Z,4.60
2023-12-19T14:48:02.571Z,5.90
2023-12-19T14:50:29.896Z,4.30
2023-12-19T14:52:57.029Z,6.50
2023-12-19T14:55:23.941Z,6.80
2023-12-19T14:57:50.929Z,6.20
2023-12-19T15:00:18.496Z,7.60
2023-12-19T15:02:48.616Z,7.50
2023-12-19T15:05:15.521Z,7.60
2023-12-19T15:07:43.524Z,8.30
2023-12-19T15:10:11.093Z,7.30
2023-12-19T15:12:39.391Z,9.40
2023-12-19T15:15:07.819Z,6.70
2023-12-19T15:17:35.110Z,6.20
2023-12-19T15:20:02.845Z,6.90
2023-12-19T15:22:30.095Z,7.90
2023-12-19T15:28:08.233Z,7.90
2023-12-19T15:30:41.956Z,6.10
2023-12-19T15:33:09.484Z,5.40
2023-12-19T15:35:36.477Z,8.10
2023-12-19T15:38:03.828Z,6.40
2023-12-19T15:40:30.823Z,4.20
2023-12-19T15:42:57.855Z,6.70
2023-12-19T15:45:24.831Z,7.80
2023-12-19T15:47:52.220Z,9.70
2023-12-19T15:50:19.268Z,7.80
2023-12-19T15:52:46.183Z,7.20
2023-12-19T15:55:13.445Z,8.20
2023-12-19T15:57:41.624Z,8.20
2023-12-19T16:00:10.053Z,9.20
2023-12-19T16:02:45.625Z,11.80
2023-12-19T16:05:15.857Z,13.60
2023-12-19T16:07:43.463Z,10.30
2023-12-19T16:10:10.757Z,8.00
2023-12-19T16:12:37.767Z,7.40
2023-12-19T16:15:06.396Z,6.60
2023-12-19T16:17:33.309Z,8.70
2023-12-19T16:20:00.143Z,8.40
2023-12-19T16:22:28.241Z,9.20
2023-12-19T16:24:56.629Z,7.30
2023-12-19T16:27:24.412Z,7.20
2023-12-19T16:29:52.255Z,7.10
2023-12-19T16:32:19.382Z,8.50
2023-12-19T16:34:46.572Z,6.30
2023-12-19T16:37:14.366Z,8.70
2023-12-19T16:39:41.242Z,8.80
2023-12-19T16:42:09.933Z,7.60
2023-12-19T16:44:39.653Z,6.70
2023-12-19T16:47:07.011Z,5.60
2023-12-19T16:49:33.825Z,9.40
2023-12-19T16:52:01.628Z,7.40
2023-12-19T16:54:28.755Z,8.00
2023-12-19T16:56:55.685Z,9.90
2023-12-19T16:59:22.887Z,9.00
2023-12-19T17:01:50.242Z,9.20
2023-12-19T17:04:17.374Z,9.00
2023-12-19T17:06:46.118Z,8.90
2023-12-19T17:09:13.225Z,7.10
2023-12-19T17:11:40.214Z,10.80
2023-12-19T17:14:07.657Z,7.50
2023-12-19T17:16:35.200Z,7.10
2023-12-19T17:19:02.353Z,7.70
2023-12-19T17:21:29.432Z,7.30
2023-12-19T17:23:56.383Z,7.20
2023-12-19T17:26:25.792Z,8.10
2023-12-19T17:28:52.958Z,8.60
2023-12-19T17:31:20.358Z,8.50
2023-12-19T17:33:47.489Z,9.60
2023-12-19T17:36:14.604Z,8.20
2023-12-19T17:38:41.547Z,8.40
2023-12-19T17:41:08.549Z,8.30
2023-12-19T17:43:35.788Z,7.90
2023-12-19T17:46:03.201Z,7.70
2023-12-19T17:48:30.210Z,8.20
2023-12-19T17:50:57.739Z,6.00
2023-12-19T17:53:24.816Z,8.10
2023-12-19T17:55:51.822Z,6.50
2023-12-19T17:58:18.987Z,9.80
2023-12-19T18:00:45.865Z,7.90
2023-12-19T18:03:13.052Z,7.30
2023-12-19T18:05:40.422Z,7.40
2023-12-19T18:08:07.518Z,7.60
2023-12-19T18:10:34.224Z,9.40
2023-12-19T18:13:01.380Z,6.30
2023-12-19T18:15:28.342Z,10.60
2023-12-19T18:17:57.669Z,9.60
2023-12-19T18:20:25.174Z,8.60
2023-12-19T18:22:52.797Z,9.90
2023-12-19T18:25:19.905Z,8.40
2023-12-19T18:27:46.979Z,8.90
2023-12-19T18:30:14.583Z,6.40
2023-12-19T18:32:42.687Z,5.40
2023-12-19T18:35:10.792Z,4.20
2023-12-19T18:37:38.551Z,9.20
2023-12-19T18:40:08.414Z,5.50
2023-12-19T18:42:36.277Z,6.20
2023-12-19T18:45:03.558Z,5.10
2023-12-19T18:47:30.284Z,8.90
2023-12-19T18:49:57.410Z,6.20
2023-12-19T18:52:24.661Z,7.30
2023-12-19T18:54:51.633Z,7.20
2023-12-19T18:57:19.006Z,6.90
2023-12-19T18:59:45.901Z,6.70
2023-12-19T19:02:12.952Z,7.70
2023-12-19T19:04:40.096Z,7.10
2023-12-19T19:07:07.274Z,6.50
2023-12-19T19:09:34.366Z,7.80
2023-12-19T19:12:01.715Z,10.90
2023-12-19T19:14:29.468Z,6.90
2023-12-19T19:16:56.517Z,8.50
2023-12-19T19:19:24.360Z,9.50
2023-12-19T19:21:51.329Z,9.10
2023-12-19T19:24:18.844Z,9.90
2023-12-19T19:26:46.068Z,11.20
2023-12-19T19:29:13.000Z,8.40
2023-12-19T19:31:42.085Z,9.80
2023-12-19T19:34:11.084Z,10.40
2023-12-19T19:36:38.604Z,8.40
2023-12-19T19:39:07.940Z,9.70
2023-12-19T19:41:40.331Z,9.90
2023-12-19T19:44:09.587Z,9.00
2023-12-19T19:46:36.854Z,10.10
2023-12-19T19:49:05.489Z,10.10
2023-12-19T19:51:36.348Z,11.30
2023-12-19T19:54:03.749Z,6.40
2023-12-19T19:56:30.692Z,9.00
2023-12-19T19:58:57.655Z,11.70
2023-12-19T20:01:24.798Z,9.50
2023-12-19T20:03:52.261Z,10.10
2023-12-19T20:06:19.341Z,8.70
2023-12-19T20:08:46.282Z,11.10
2023-12-19T20:11:13.455Z,10.30
2023-12-19T20:13:40.263Z,9.80
2023-12-19T20:16:07.662Z,9.30
2023-12-19T20:18:35.655Z,9.30
2023-12-19T20:21:02.765Z,13.50
2023-12-19T20:23:30.435Z,10.10
2023-12-19T20:25:57.529Z,10.70
2023-12-19T20:28:24.819Z,12.30
2023-12-19T20:30:52.926Z,10.30
2023-12-19T20:33:20.577Z,9.10
2023-12-19T20:35:49.975Z,10.00
2023-12-19T20:38:17.108Z,9.20
2023-12-19T20:40:44.866Z,6.00
2023-12-19T20:43:11.885Z,9.10
2023-12-19T20:45:40.356Z,7.90
2023-12-19T20:48:08.029Z,9.00
2023-12-19T20:50:35.090Z,7.70
2023-12-19T20:53:02.482Z,10.60
2023-12-19T20:55:30.171Z,9.40
2023-12-19T20:57:57.010Z,7.90
2023-12-19T21:00:26.518Z,8.90
2023-12-19T21:02:53.807Z,6.20
2023-12-19T21:05:20.822Z,7.10
2023-12-19T21:07:49.579Z,5.60
2023-12-19T21:10:17.506Z,3.90
2023-12-19T21:12:45.056Z,4.90
2023-12-19T21:15:12.842Z,6.30
2023-12-19T21:17:40.353Z,6.90
2023-12-19T21:20:08.300Z,6.90
2023-12-19T21:22:35.483Z,6.10
2023-12-19T21:25:02.752Z,6.50
2023-12-19T21:27:30.468Z,5.30
2023-12-19T21:29:57.513Z,6.60
2023-12-19T21:32:24.666Z,5.90
2023-12-19T21:34:51.877Z,4.90
2023-12-19T21:37:18.800Z,5.50
2023-12-19T21:39:47.044Z,5.40
2023-12-19T21:42:13.813Z,5.20
2023-12-19T21:44:40.902Z,6.70
2023-12-19T21:47:07.784Z,6.10
2023-12-19T21:49:38.637Z,6.20
2023-12-19T21:52:07.404Z,7.80
2023-12-19T21:54:34.887Z,4.90
2023-12-19T21:57:04.958Z,7.50
2023-12-19T21:59:32.113Z,9.50
2023-12-19T22:01:59.763Z,4.70
2023-12-19T22:04:26.731Z,5.50
2023-12-19T22:06:54.019Z,5.40
2023-12-19T22:09:21.121Z,5.60
2023-12-19T22:11:50.345Z,4.40
2023-12-19T22:14:17.135Z,3.80
2023-12-19T22:16:44.122Z,3.80
2023-12-19T22:19:10.978Z,4.00
2023-12-19T22:21:37.964Z,5.50
2023-12-19T22:24:05.231Z,5.30
2023-12-19T22:26:31.957Z,4.70
2023-12-19T22:28:58.704Z,5.40
2023-12-19T22:31:25.993Z,4.80
2023-12-19T22:33:52.832Z,5.40
2023-12-19T22:36:19.638Z,5.60
2023-12-19T22:38:46.549Z,5.50
2023-12-19T22:41:13.345Z,6.50
2023-12-19T22:43:40.167Z,4.70
2023-12-19T22:46:07.095Z,4.90
2023-12-19T22:48:34.005Z,4.50
2023-12-19T22:51:00.855Z,6.00
2023-12-19T22:53:28.081Z,5.30
2023-12-19T22:55:54.929Z,5.60
2023-12-19T22:58:21.760Z,6.80
2023-12-19T23:00:48.704Z,6.10
2023-12-19T23:03:19.524Z,6.70
2023-12-19T23:05:46.639Z,6.00
2023-12-19T23:08:13.845Z,6.30
2023-12-19T23:10:40.837Z,9.00
2023-12-19T23:13:09.247Z,5.60
2023-12-19T23:15:37.124Z,5.20
2023-12-19T23:18:04.927Z,6.30
2023-12-19T23:20:33.656Z,5.70
2023-12-19T23:23:01.300Z,6.00
2023-12-19T23:25:28.132Z,5.00
2023-12-19T23:27:55.360Z,6.20
2023-12-19T23:30:23.006Z,4.30
2023-12-19T23:32:50.393Z,5.80
2023-12-19T23:35:17.366Z,5.80
2023-12-19T23:37:44.983Z,6.30
2023-12-19T23:40:13.088Z,6.00
2023-12-19T23:42:40.229Z,5.90
2023-12-19T23:45:07.680Z,3.70
2023-12-19T23:47:34.905Z,5.20
2023-12-19T23:50:02.698Z,5.00
2023-12-19T23:52:30.335Z,5.70
2023-12-19T23:54:57.238Z,4.00
2023-12-19T23:57:24.182Z,4.50
2023-12-19T23:59:51.457Z,4.80
